Middlefield, Connecticut
Current Conditions -  °F | °C
As of 7:53 AM on Monday 22 Dec 2014 (Local Time) from KMMK Reporting Station
Overcast Overcast  
Wind Chill: 29°   Ceiling: 1200
Heat Index: 34°   Visibility: 10mi
Dew Point: 30°   Wind: 6mph
Humidity: 85%   Direction: 10°N
Pressure: 30.35"   Gusts: NA
Location:  41.52°N, 72.71°W
Report Text: KMMK 221253Z AUTO 01005KT 10SM OVC012 01/M01 A3035 RMK AO2 SLP280 T00111011 TSNO
Loading
Personal Weather Stations






























Interactive Weather Map New forecast layout! Learn more

10-Day Weather Forecast

Advertisements
Track Severe Weather on mobile